sensor_id;sensor_type;location;lat;lon;timestamp;P1;durP1;ratioP1;P2;durP2;ratioP2
3004;SDS011;1512;51.486;6.610;2023-02-20T00:00:34;4.90;;;4.20;;
3004;SDS011;1512;51.486;6.610;2023-02-20T00:04:45;4.43;;;3.93;;
3004;SDS011;1512;51.486;6.610;2023-02-20T00:08:54;9.13;;;5.97;;
3004;SDS011;1512;51.486;6.610;2023-02-20T00:13:02;7.33;;;4.67;;
3004;SDS011;1512;51.486;6.610;2023-02-20T00:17:11;6.50;;;4.50;;
3004;SDS011;1512;51.486;6.610;2023-02-20T00:21:20;6.97;;;5.43;;
3004;SDS011;1512;51.486;6.610;2023-02-20T00:25:28;5.73;;;5.03;;
3004;SDS011;1512;51.486;6.610;2023-02-20T00:29:37;6.57;;;5.27;;
3004;SDS011;1512;51.486;6.610;2023-02-20T00:33:45;8.03;;;5.50;;
3004;SDS011;1512;51.486;6.610;2023-02-20T00:37:54;11.13;;;6.30;;
3004;SDS011;1512;51.486;6.610;2023-02-20T00:42:03;8.80;;;7.30;;
3004;SDS011;1512;51.486;6.610;2023-02-20T00:46:12;11.20;;;5.40;;
3004;SDS011;1512;51.486;6.610;2023-02-20T00:54:42;7.70;;;5.67;;
3004;SDS011;1512;51.486;6.610;2023-02-20T00:58:51;8.80;;;6.40;;
3004;SDS011;1512;51.486;6.610;2023-02-20T01:03:00;12.93;;;8.10;;
3004;SDS011;1512;51.486;6.610;2023-02-20T01:07:08;13.93;;;6.97;;
3004;SDS011;1512;51.486;6.610;2023-02-20T01:11:17;10.43;;;7.17;;
3004;SDS011;1512;51.486;6.610;2023-02-20T01:15:26;13.63;;;7.80;;
3004;SDS011;1512;51.486;6.610;2023-02-20T01:19:35;13.70;;;7.60;;
3004;SDS011;1512;51.486;6.610;2023-02-20T01:23:43;11.70;;;6.90;;
3004;SDS011;1512;51.486;6.610;2023-02-20T01:27:52;8.27;;;6.00;;
3004;SDS011;1512;51.486;6.610;2023-02-20T01:32:00;12.63;;;8.90;;
3004;SDS011;1512;51.486;6.610;2023-02-20T01:36:09;9.17;;;5.93;;
3004;SDS011;1512;51.486;6.610;2023-02-20T01:40:19;8.05;;;5.85;;
3004;SDS011;1512;51.486;6.610;2023-02-20T01:44:34;12.30;;;7.43;;
3004;SDS011;1512;51.486;6.610;2023-02-20T01:48:41;7.17;;;6.40;;
3004;SDS011;1512;51.486;6.610;2023-02-20T01:52:53;12.60;;;8.37;;
3004;SDS011;1512;51.486;6.610;2023-02-20T01:57:04;10.90;;;6.73;;
3004;SDS011;1512;51.486;6.610;2023-02-20T02:01:16;8.40;;;5.57;;
3004;SDS011;1512;51.486;6.610;2023-02-20T02:05:25;20.60;;;7.37;;
3004;SDS011;1512;51.486;6.610;2023-02-20T02:09:38;12.03;;;6.27;;
3004;SDS011;1512;51.486;6.610;2023-02-20T02:13:50;14.50;;;8.67;;
3004;SDS011;1512;51.486;6.610;2023-02-20T02:27:01;10.80;;;7.70;;
3004;SDS011;1512;51.486;6.610;2023-02-20T02:31:19;15.30;;;8.83;;
3004;SDS011;1512;51.486;6.610;2023-02-20T02:40:13;14.90;;;8.00;;
3004;SDS011;1512;51.486;6.610;2023-02-20T02:53:39;15.77;;;7.93;;
3004;SDS011;1512;51.486;6.610;2023-02-20T02:57:48;11.23;;;7.30;;
3004;SDS011;1512;51.486;6.610;2023-02-20T03:02:02;13.80;;;8.13;;
3004;SDS011;1512;51.486;6.610;2023-02-20T03:06:16;13.83;;;7.67;;
3004;SDS011;1512;51.486;6.610;2023-02-20T03:10:28;13.27;;;8.70;;
3004;SDS011;1512;51.486;6.610;2023-02-20T03:14:41;21.77;;;8.60;;
3004;SDS011;1512;51.486;6.610;2023-02-20T03:19:13;12.50;;;7.97;;
3004;SDS011;1512;51.486;6.610;2023-02-20T03:23:29;14.93;;;8.17;;
3004;SDS011;1512;51.486;6.610;2023-02-20T03:27:42;11.53;;;7.77;;
3004;SDS011;1512;51.486;6.610;2023-02-20T03:32:28;13.83;;;7.93;;
3004;SDS011;1512;51.486;6.610;2023-02-20T03:36:57;17.27;;;7.97;;
3004;SDS011;1512;51.486;6.610;2023-02-20T03:41:26;18.10;;;8.07;;
3004;SDS011;1512;51.486;6.610;2023-02-20T03:46:02;13.80;;;8.77;;
3004;SDS011;1512;51.486;6.610;2023-02-20T03:50:22;11.63;;;7.57;;
3004;SDS011;1512;51.486;6.610;2023-02-20T03:58:53;14.00;;;7.80;;
3004;SDS011;1512;51.486;6.610;2023-02-20T04:03:07;22.33;;;7.60;;
3004;SDS011;1512;51.486;6.610;2023-02-20T04:07:23;23.23;;;7.57;;
3004;SDS011;1512;51.486;6.610;2023-02-20T04:11:32;13.10;;;7.30;;
3004;SDS011;1512;51.486;6.610;2023-02-20T04:15:41;11.10;;;7.30;;
3004;SDS011;1512;51.486;6.610;2023-02-20T04:19:51;11.83;;;7.80;;
3004;SDS011;1512;51.486;6.610;2023-02-20T04:28:33;13.97;;;8.10;;
3004;SDS011;1512;51.486;6.610;2023-02-20T04:32:41;9.40;;;5.90;;
3004;SDS011;1512;51.486;6.610;2023-02-20T04:36:51;10.10;;;6.60;;
3004;SDS011;1512;51.486;6.610;2023-02-20T04:45:31;12.57;;;5.60;;
3004;SDS011;1512;51.486;6.610;2023-02-20T04:49:39;9.20;;;5.87;;
3004;SDS011;1512;51.486;6.610;2023-02-20T04:53:48;9.60;;;6.13;;
3004;SDS011;1512;51.486;6.610;2023-02-20T04:57:57;10.37;;;6.40;;
3004;SDS011;1512;51.486;6.610;2023-02-20T05:02:06;20.40;;;8.37;;
3004;SDS011;1512;51.486;6.610;2023-02-20T05:06:16;8.57;;;6.50;;
3004;SDS011;1512;51.486;6.610;2023-02-20T05:10:25;11.73;;;6.47;;
3004;SDS011;1512;51.486;6.610;2023-02-20T05:14:35;12.20;;;7.33;;
3004;SDS011;1512;51.486;6.610;2023-02-20T05:18:44;11.13;;;5.63;;
3004;SDS011;1512;51.486;6.610;2023-02-20T05:22:52;8.40;;;6.30;;
3004;SDS011;1512;51.486;6.610;2023-02-20T05:27:01;13.97;;;7.17;;
3004;SDS011;1512;51.486;6.610;2023-02-20T05:31:10;13.60;;;6.47;;
3004;SDS011;1512;51.486;6.610;2023-02-20T05:35:20;11.80;;;6.83;;
3004;SDS011;1512;51.486;6.610;2023-02-20T05:39:29;19.93;;;8.47;;
3004;SDS011;1512;51.486;6.610;2023-02-20T05:43:37;9.43;;;7.63;;
3004;SDS011;1512;51.486;6.610;2023-02-20T05:47:46;13.03;;;8.53;;
3004;SDS011;1512;51.486;6.610;2023-02-20T05:51:55;12.53;;;8.40;;
3004;SDS011;1512;51.486;6.610;2023-02-20T05:56:04;11.87;;;9.03;;
3004;SDS011;1512;51.486;6.610;2023-02-20T06:00:13;8.03;;;6.87;;
3004;SDS011;1512;51.486;6.610;2023-02-20T06:04:22;10.27;;;8.50;;
3004;SDS011;1512;51.486;6.610;2023-02-20T06:08:31;10.43;;;7.67;;
3004;SDS011;1512;51.486;6.610;2023-02-20T06:12:40;14.43;;;8.67;;
3004;SDS011;1512;51.486;6.610;2023-02-20T06:16:48;16.40;;;8.80;;
3004;SDS011;1512;51.486;6.610;2023-02-20T06:20:57;15.63;;;10.07;;
3004;SDS011;1512;51.486;6.610;2023-02-20T06:25:06;12.57;;;8.00;;
3004;SDS011;1512;51.486;6.610;2023-02-20T06:29:15;10.57;;;8.40;;
3004;SDS011;1512;51.486;6.610;2023-02-20T06:33:24;13.80;;;9.10;;
3004;SDS011;1512;51.486;6.610;2023-02-20T06:37:33;22.90;;;9.13;;
3004;SDS011;1512;51.486;6.610;2023-02-20T06:41:42;13.97;;;7.87;;
3004;SDS011;1512;51.486;6.610;2023-02-20T06:45:51;11.20;;;8.03;;
3004;SDS011;1512;51.486;6.610;2023-02-20T06:49:59;19.67;;;10.23;;
3004;SDS011;1512;51.486;6.610;2023-02-20T06:54:09;13.03;;;8.70;;
3004;SDS011;1512;51.486;6.610;2023-02-20T06:58:19;20.00;;;7.60;;
3004;SDS011;1512;51.486;6.610;2023-02-20T07:02:31;14.10;;;8.67;;
3004;SDS011;1512;51.486;6.610;2023-02-20T07:06:41;20.77;;;9.73;;
3004;SDS011;1512;51.486;6.610;2023-02-20T07:10:49;13.80;;;8.53;;
3004;SDS011;1512;51.486;6.610;2023-02-20T07:15:00;11.03;;;9.17;;
3004;SDS011;1512;51.486;6.610;2023-02-20T07:23:36;19.67;;;9.70;;
3004;SDS011;1512;51.486;6.610;2023-02-20T07:27:45;13.10;;;8.57;;
3004;SDS011;1512;51.486;6.610;2023-02-20T07:36:24;14.77;;;7.30;;
3004;SDS011;1512;51.486;6.610;2023-02-20T07:40:33;8.93;;;7.60;;
3004;SDS011;1512;51.486;6.610;2023-02-20T07:44:43;13.10;;;8.03;;
3004;SDS011;1512;51.486;6.610;2023-02-20T07:48:55;15.47;;;10.33;;
3004;SDS011;1512;51.486;6.610;2023-02-20T07:53:04;19.30;;;9.57;;
3004;SDS011;1512;51.486;6.610;2023-02-20T07:57:13;11.47;;;8.30;;
3004;SDS011;1512;51.486;6.610;2023-02-20T08:01:22;10.10;;;7.83;;
3004;SDS011;1512;51.486;6.610;2023-02-20T08:05:30;18.13;;;8.70;;
3004;SDS011;1512;51.486;6.610;2023-02-20T08:09:41;13.83;;;7.57;;
3004;SDS011;1512;51.486;6.610;2023-02-20T08:22:47;15.27;;;7.50;;
3004;SDS011;1512;51.486;6.610;2023-02-20T08:26:57;14.97;;;8.20;;
3004;SDS011;1512;51.486;6.610;2023-02-20T08:31:06;10.30;;;6.80;;
3004;SDS011;1512;51.486;6.610;2023-02-20T08:35:16;21.30;;;9.10;;
3004;SDS011;1512;51.486;6.610;2023-02-20T08:39:26;16.07;;;8.33;;
3004;SDS011;1512;51.486;6.610;2023-02-20T08:43:35;13.93;;;8.53;;
3004;SDS011;1512;51.486;6.610;2023-02-20T08:52:13;16.40;;;8.83;;
3004;SDS011;1512;51.486;6.610;2023-02-20T08:56:22;19.67;;;8.90;;
3004;SDS011;1512;51.486;6.610;2023-02-20T09:00:31;14.87;;;8.50;;
3004;SDS011;1512;51.486;6.610;2023-02-20T09:04:41;10.87;;;8.30;;
3004;SDS011;1512;51.486;6.610;2023-02-20T09:08:55;11.80;;;9.03;;
3004;SDS011;1512;51.486;6.610;2023-02-20T09:13:04;19.00;;;9.20;;
3004;SDS011;1512;51.486;6.610;2023-02-20T09:17:13;12.40;;;7.37;;
3004;SDS011;1512;51.486;6.610;2023-02-20T09:21:21;12.80;;;9.20;;
3004;SDS011;1512;51.486;6.610;2023-02-20T09:25:30;9.10;;;7.30;;
3004;SDS011;1512;51.486;6.610;2023-02-20T09:29:39;12.00;;;8.87;;
3004;SDS011;1512;51.486;6.610;2023-02-20T09:33:53;18.23;;;9.83;;
3004;SDS011;1512;51.486;6.610;2023-02-20T09:38:01;17.40;;;9.10;;
3004;SDS011;1512;51.486;6.610;2023-02-20T09:42:14;18.47;;;8.30;;
3004;SDS011;1512;51.486;6.610;2023-02-20T09:46:27;17.77;;;8.33;;
3004;SDS011;1512;51.486;6.610;2023-02-20T09:50:38;13.37;;;7.97;;
3004;SDS011;1512;51.486;6.610;2023-02-20T09:54:57;11.70;;;7.57;;
3004;SDS011;1512;51.486;6.610;2023-02-20T10:03:33;14.77;;;8.70;;
3004;SDS011;1512;51.486;6.610;2023-02-20T10:07:43;11.93;;;9.30;;
3004;SDS011;1512;51.486;6.610;2023-02-20T10:12:03;13.90;;;8.17;;
3004;SDS011;1512;51.486;6.610;2023-02-20T10:29:36;11.63;;;8.27;;
3004;SDS011;1512;51.486;6.610;2023-02-20T10:33:51;15.50;;;7.70;;
3004;SDS011;1512;51.486;6.610;2023-02-20T10:37:58;9.53;;;7.40;;
3004;SDS011;1512;51.486;6.610;2023-02-20T10:42:11;18.47;;;8.47;;
3004;SDS011;1512;51.486;6.610;2023-02-20T10:46:26;15.07;;;7.70;;
3004;SDS011;1512;51.486;6.610;2023-02-20T10:50:42;10.80;;;8.20;;
3004;SDS011;1512;51.486;6.610;2023-02-20T10:55:10;13.00;;;7.00;;
3004;SDS011;1512;51.486;6.610;2023-02-20T10:59:28;13.63;;;7.10;;
3004;SDS011;1512;51.486;6.610;2023-02-20T11:08:11;11.40;;;7.27;;
3004;SDS011;1512;51.486;6.610;2023-02-20T11:12:28;11.93;;;7.20;;
3004;SDS011;1512;51.486;6.610;2023-02-20T11:20:55;9.80;;;7.67;;
3004;SDS011;1512;51.486;6.610;2023-02-20T11:25:50;9.87;;;6.77;;
3004;SDS011;1512;51.486;6.610;2023-02-20T11:33:57;12.73;;;6.77;;
3004;SDS011;1512;51.486;6.610;2023-02-20T11:42:39;11.23;;;6.30;;
3004;SDS011;1512;51.486;6.610;2023-02-20T11:47:07;8.30;;;6.00;;
3004;SDS011;1512;51.486;6.610;2023-02-20T11:51:00;13.50;;;9.07;;
3004;SDS011;1512;51.486;6.610;2023-02-20T11:55:20;12.33;;;7.03;;
3004;SDS011;1512;51.486;6.610;2023-02-20T11:59:29;18.20;;;8.57;;
3004;SDS011;1512;51.486;6.610;2023-02-20T12:03:53;8.80;;;6.40;;
3004;SDS011;1512;51.486;6.610;2023-02-20T12:08:19;13.07;;;7.93;;
3004;SDS011;1512;51.486;6.610;2023-02-20T12:12:16;12.07;;;7.50;;
3004;SDS011;1512;51.486;6.610;2023-02-20T12:16:48;12.13;;;7.03;;
3004;SDS011;1512;51.486;6.610;2023-02-20T12:47:42;11.40;;;8.13;;
3004;SDS011;1512;51.486;6.610;2023-02-20T12:52:03;13.23;;;8.13;;
3004;SDS011;1512;51.486;6.610;2023-02-20T12:56:23;9.20;;;6.80;;
3004;SDS011;1512;51.486;6.610;2023-02-20T13:00:49;15.90;;;7.77;;
3004;SDS011;1512;51.486;6.610;2023-02-20T13:22:57;14.43;;;9.80;;
3004;SDS011;1512;51.486;6.610;2023-02-20T13:27:08;12.83;;;8.07;;
3004;SDS011;1512;51.486;6.610;2023-02-20T13:31:23;18.67;;;9.90;;
3004;SDS011;1512;51.486;6.610;2023-02-20T13:35:45;11.77;;;8.87;;
3004;SDS011;1512;51.486;6.610;2023-02-20T13:39:57;18.23;;;8.30;;
3004;SDS011;1512;51.486;6.610;2023-02-20T13:52:48;19.30;;;9.07;;
3004;SDS011;1512;51.486;6.610;2023-02-20T13:56:58;12.80;;;8.50;;
3004;SDS011;1512;51.486;6.610;2023-02-20T14:01:09;18.23;;;9.57;;
3004;SDS011;1512;51.486;6.610;2023-02-20T14:05:20;11.60;;;7.30;;
3004;SDS011;1512;51.486;6.610;2023-02-20T14:14:01;14.20;;;7.50;;
3004;SDS011;1512;51.486;6.610;2023-02-20T14:18:29;13.03;;;8.10;;
3004;SDS011;1512;51.486;6.610;2023-02-20T14:22:40;15.43;;;8.60;;
3004;SDS011;1512;51.486;6.610;2023-02-20T14:26:49;10.90;;;8.17;;
3004;SDS011;1512;51.486;6.610;2023-02-20T14:31:12;14.90;;;8.87;;
3004;SDS011;1512;51.486;6.610;2023-02-20T14:44:02;17.00;;;8.60;;
3004;SDS011;1512;51.486;6.610;2023-02-20T14:48:27;13.67;;;8.90;;
3004;SDS011;1512;51.486;6.610;2023-02-20T14:57:13;12.83;;;8.83;;
3004;SDS011;1512;51.486;6.610;2023-02-20T15:05:39;14.63;;;9.00;;
3004;SDS011;1512;51.486;6.610;2023-02-20T15:09:49;12.97;;;8.77;;
3004;SDS011;1512;51.486;6.610;2023-02-20T15:13:59;12.87;;;8.10;;
3004;SDS011;1512;51.486;6.610;2023-02-20T15:18:15;17.73;;;9.30;;
3004;SDS011;1512;51.486;6.610;2023-02-20T15:22:23;12.00;;;7.90;;
3004;SDS011;1512;51.486;6.610;2023-02-20T15:26:34;14.13;;;9.50;;
3004;SDS011;1512;51.486;6.610;2023-02-20T15:31:00;17.10;;;9.67;;
3004;SDS011;1512;51.486;6.610;2023-02-20T15:35:13;12.70;;;8.07;;
3004;SDS011;1512;51.486;6.610;2023-02-20T15:39:23;14.40;;;9.20;;
3004;SDS011;1512;51.486;6.610;2023-02-20T15:52:28;19.13;;;8.07;;
3004;SDS011;1512;51.486;6.610;2023-02-20T15:56:38;13.00;;;9.20;;
3004;SDS011;1512;51.486;6.610;2023-02-20T16:00:47;11.20;;;8.50;;
3004;SDS011;1512;51.486;6.610;2023-02-20T16:09:25;9.80;;;7.73;;
3004;SDS011;1512;51.486;6.610;2023-02-20T16:13:37;9.20;;;7.60;;
3004;SDS011;1512;51.486;6.610;2023-02-20T16:17:49;10.97;;;7.40;;
3004;SDS011;1512;51.486;6.610;2023-02-20T16:21:58;11.93;;;9.13;;
3004;SDS011;1512;51.486;6.610;2023-02-20T16:26:07;13.23;;;7.37;;
3004;SDS011;1512;51.486;6.610;2023-02-20T16:30:18;9.60;;;7.13;;
3004;SDS011;1512;51.486;6.610;2023-02-20T16:34:38;13.20;;;7.90;;
3004;SDS011;1512;51.486;6.610;2023-02-20T16:38:46;10.20;;;7.67;;
3004;SDS011;1512;51.486;6.610;2023-02-20T16:42:55;12.57;;;7.33;;
3004;SDS011;1512;51.486;6.610;2023-02-20T16:51:36;10.87;;;8.70;;
3004;SDS011;1512;51.486;6.610;2023-02-20T16:55:45;9.53;;;8.33;;
3004;SDS011;1512;51.486;6.610;2023-02-20T16:59:56;11.30;;;8.00;;
3004;SDS011;1512;51.486;6.610;2023-02-20T17:04:06;10.60;;;7.53;;
3004;SDS011;1512;51.486;6.610;2023-02-20T17:08:15;26.83;;;8.10;;
3004;SDS011;1512;51.486;6.610;2023-02-20T17:12:24;10.10;;;8.10;;
3004;SDS011;1512;51.486;6.610;2023-02-20T17:16:33;11.00;;;7.70;;
3004;SDS011;1512;51.486;6.610;2023-02-20T17:20:42;11.97;;;7.20;;
3004;SDS011;1512;51.486;6.610;2023-02-20T17:24:51;9.30;;;7.47;;
3004;SDS011;1512;51.486;6.610;2023-02-20T17:29:00;18.15;;;8.70;;
3004;SDS011;1512;51.486;6.610;2023-02-20T17:33:09;14.87;;;8.30;;
3004;SDS011;1512;51.486;6.610;2023-02-20T17:37:17;12.90;;;8.80;;
3004;SDS011;1512;51.486;6.610;2023-02-20T17:41:28;15.43;;;8.60;;
3004;SDS011;1512;51.486;6.610;2023-02-20T17:45:36;13.63;;;7.77;;
3004;SDS011;1512;51.486;6.610;2023-02-20T17:49:50;12.10;;;8.87;;
3004;SDS011;1512;51.486;6.610;2023-02-20T17:53:59;10.53;;;7.90;;
3004;SDS011;1512;51.486;6.610;2023-02-20T17:58:07;18.53;;;7.80;;
3004;SDS011;1512;51.486;6.610;2023-02-20T18:02:17;18.33;;;9.40;;
3004;SDS011;1512;51.486;6.610;2023-02-20T18:06:26;9.60;;;7.67;;
3004;SDS011;1512;51.486;6.610;2023-02-20T18:10:35;20.33;;;8.33;;
3004;SDS011;1512;51.486;6.610;2023-02-20T18:19:12;17.67;;;8.60;;
3004;SDS011;1512;51.486;6.610;2023-02-20T18:23:23;19.30;;;9.50;;
3004;SDS011;1512;51.486;6.610;2023-02-20T18:27:32;14.43;;;9.30;;
3004;SDS011;1512;51.486;6.610;2023-02-20T18:31:41;10.80;;;8.20;;
3004;SDS011;1512;51.486;6.610;2023-02-20T18:35:50;14.03;;;9.27;;
3004;SDS011;1512;51.486;6.610;2023-02-20T18:40:00;12.07;;;8.60;;
3004;SDS011;1512;51.486;6.610;2023-02-20T18:44:09;18.40;;;10.13;;
3004;SDS011;1512;51.486;6.610;2023-02-20T18:48:17;12.20;;;8.30;;
3004;SDS011;1512;51.486;6.610;2023-02-20T18:52:26;15.50;;;9.50;;
3004;SDS011;1512;51.486;6.610;2023-02-20T18:56:35;12.90;;;9.83;;
3004;SDS011;1512;51.486;6.610;2023-02-20T19:00:44;11.77;;;9.00;;
3004;SDS011;1512;51.486;6.610;2023-02-20T19:04:53;14.57;;;9.77;;
3004;SDS011;1512;51.486;6.610;2023-02-20T19:09:05;15.20;;;9.30;;
3004;SDS011;1512;51.486;6.610;2023-02-20T19:13:14;16.03;;;10.40;;
3004;SDS011;1512;51.486;6.610;2023-02-20T19:17:23;11.70;;;9.70;;
3004;SDS011;1512;51.486;6.610;2023-02-20T19:26:00;17.70;;;10.50;;
3004;SDS011;1512;51.486;6.610;2023-02-20T19:30:09;13.80;;;9.93;;
3004;SDS011;1512;51.486;6.610;2023-02-20T19:34:18;20.33;;;11.00;;
3004;SDS011;1512;51.486;6.610;2023-02-20T19:38:27;14.23;;;9.73;;
3004;SDS011;1512;51.486;6.610;2023-02-20T19:42:36;14.07;;;8.73;;
3004;SDS011;1512;51.486;6.610;2023-02-20T19:46:45;12.50;;;10.83;;
3004;SDS011;1512;51.486;6.610;2023-02-20T19:50:55;17.93;;;11.13;;
3004;SDS011;1512;51.486;6.610;2023-02-20T19:55:04;14.80;;;9.90;;
3004;SDS011;1512;51.486;6.610;2023-02-20T19:59:13;14.70;;;10.47;;
3004;SDS011;1512;51.486;6.610;2023-02-20T20:03:21;14.90;;;11.40;;
3004;SDS011;1512;51.486;6.610;2023-02-20T20:07:30;14.97;;;10.40;;
3004;SDS011;1512;51.486;6.610;2023-02-20T20:16:06;14.60;;;10.47;;
3004;SDS011;1512;51.486;6.610;2023-02-20T20:20:16;19.13;;;11.00;;
3004;SDS011;1512;51.486;6.610;2023-02-20T20:24:27;15.40;;;10.00;;
3004;SDS011;1512;51.486;6.610;2023-02-20T20:33:05;18.67;;;9.70;;
3004;SDS011;1512;51.486;6.610;2023-02-20T20:37:14;17.23;;;10.03;;
3004;SDS011;1512;51.486;6.610;2023-02-20T20:41:23;21.83;;;12.03;;
3004;SDS011;1512;51.486;6.610;2023-02-20T20:45:33;14.20;;;10.50;;
3004;SDS011;1512;51.486;6.610;2023-02-20T20:49:44;27.23;;;10.30;;
3004;SDS011;1512;51.486;6.610;2023-02-20T20:53:52;23.00;;;9.43;;
3004;SDS011;1512;51.486;6.610;2023-02-20T20:58:01;14.17;;;10.43;;
3004;SDS011;1512;51.486;6.610;2023-02-20T21:02:10;15.70;;;10.77;;
3004;SDS011;1512;51.486;6.610;2023-02-20T21:06:19;13.10;;;9.70;;
3004;SDS011;1512;51.486;6.610;2023-02-20T21:10:27;13.60;;;10.33;;
3004;SDS011;1512;51.486;6.610;2023-02-20T21:14:36;16.73;;;8.93;;
3004;SDS011;1512;51.486;6.610;2023-02-20T21:18:47;23.73;;;10.93;;
3004;SDS011;1512;51.486;6.610;2023-02-20T21:22:56;11.47;;;9.67;;
3004;SDS011;1512;51.486;6.610;2023-02-20T21:27:06;12.30;;;9.43;;
3004;SDS011;1512;51.486;6.610;2023-02-20T21:31:14;21.83;;;11.90;;
3004;SDS011;1512;51.486;6.610;2023-02-20T21:35:24;23.07;;;12.10;;
3004;SDS011;1512;51.486;6.610;2023-02-20T21:39:32;16.67;;;12.20;;
3004;SDS011;1512;51.486;6.610;2023-02-20T21:43:41;22.30;;;11.80;;
3004;SDS011;1512;51.486;6.610;2023-02-20T21:48:07;16.13;;;11.10;;
3004;SDS011;1512;51.486;6.610;2023-02-20T21:52:20;17.90;;;11.43;;
3004;SDS011;1512;51.486;6.610;2023-02-20T21:56:30;23.90;;;11.77;;
3004;SDS011;1512;51.486;6.610;2023-02-20T22:00:38;17.33;;;11.90;;
3004;SDS011;1512;51.486;6.610;2023-02-20T22:04:46;19.90;;;13.00;;
3004;SDS011;1512;51.486;6.610;2023-02-20T22:08:54;17.43;;;12.07;;
3004;SDS011;1512;51.486;6.610;2023-02-20T22:13:21;16.77;;;10.10;;
3004;SDS011;1512;51.486;6.610;2023-02-20T22:17:47;20.87;;;12.23;;
3004;SDS011;1512;51.486;6.610;2023-02-20T22:22:14;17.90;;;10.87;;
3004;SDS011;1512;51.486;6.610;2023-02-20T22:26:41;18.97;;;12.93;;
3004;SDS011;1512;51.486;6.610;2023-02-20T22:31:08;18.57;;;11.70;;
3004;SDS011;1512;51.486;6.610;2023-02-20T22:35:35;17.47;;;11.53;;
3004;SDS011;1512;51.486;6.610;2023-02-20T22:40:02;20.83;;;12.57;;
3004;SDS011;1512;51.486;6.610;2023-02-20T22:44:29;19.73;;;13.03;;
3004;SDS011;1512;51.486;6.610;2023-02-20T22:48:56;22.77;;;13.18;;
3004;SDS011;1512;51.486;6.610;2023-02-20T22:53:22;17.93;;;12.67;;
3004;SDS011;1512;51.486;6.610;2023-02-20T22:57:54;18.17;;;12.63;;
3004;SDS011;1512;51.486;6.610;2023-02-20T23:02:21;22.90;;;12.50;;
3004;SDS011;1512;51.486;6.610;2023-02-20T23:06:48;21.25;;;13.40;;
3004;SDS011;1512;51.486;6.610;2023-02-20T23:11:15;20.83;;;11.93;;
3004;SDS011;1512;51.486;6.610;2023-02-20T23:15:42;25.13;;;14.67;;
3004;SDS011;1512;51.486;6.610;2023-02-20T23:20:14;24.03;;;14.60;;
3004;SDS011;1512;51.486;6.610;2023-02-20T23:24:38;21.70;;;11.67;;
3004;SDS011;1512;51.486;6.610;2023-02-20T23:29:05;20.53;;;13.13;;
3004;SDS011;1512;51.486;6.610;2023-02-20T23:33:31;22.53;;;13.57;;
3004;SDS011;1512;51.486;6.610;2023-02-20T23:37:57;19.53;;;13.00;;
3004;SDS011;1512;51.486;6.610;2023-02-20T23:42:24;23.40;;;14.03;;
3004;SDS011;1512;51.486;6.610;2023-02-20T23:46:50;20.53;;;12.83;;
3004;SDS011;1512;51.486;6.610;2023-02-20T23:51:17;26.13;;;13.97;;
3004;SDS011;1512;51.486;6.610;2023-02-20T23:55:43;23.73;;;11.23;;
